Time;durP1;ratioP1;P1;durP2;ratioP2;P2;SDS_P1;SDS_P2;PMS_P1;PMS_P2;Temp;Humidity;BMP_temperature;BMP_pressure;BME280_temperature;BME280_humidity;BME280_pressure;Samples;Min_cycle;Max_cycle;Signal;HPM_P1;HPM_P2
2021/04/05 00:00:37;;;;;;;33.97;20.80;;;;;;;2.40;70.78;100049.38;1731819;81;21290;-82
2021/04/05 00:03:05;;;;;;;25.67;20.73;;;;;;;2.53;70.42;100045.44;1734049;81;21334;-82
2021/04/05 00:05:37;;;;;;;29.77;23.60;;;;;;;2.56;70.35;100045.63;1744792;81;21329;-83
2021/04/05 00:08:08;;;;;;;28.97;23.33;;;;;;;2.51;70.52;100050.02;1714638;82;21223;-80
2021/04/05 00:10:53;;;;;;;31.40;24.03;;;;;;;2.46;70.58;100046.98;1704945;82;21229;-81
2021/04/05 00:13:34;;;;;;;41.50;25.10;;;;;;;2.41;70.64;100047.92;1682386;83;21312;-80
2021/04/05 00:16:05;;;;;;;31.37;23.93;;;;;;;2.35;70.67;100041.89;1686283;81;21328;-84
2021/04/05 00:18:34;;;;;;;33.90;23.93;;;;;;;2.27;70.69;100040.47;1700119;83;21225;-85
2021/04/05 00:21:19;;;;;;;32.57;22.87;;;;;;;2.26;70.71;100038.80;1694679;84;21323;-83
2021/04/05 00:23:52;;;;;;;41.17;22.53;;;;;;;2.31;70.49;100042.66;1694486;83;21328;-83
2021/04/05 00:26:21;;;;;;;27.47;21.50;;;;;;;2.35;70.34;100037.95;1680073;83;21564;-82
2021/04/05 00:28:49;;;;;;;27.17;22.53;;;;;;;2.26;70.48;100030.91;1663147;85;21210;-83
2021/04/05 00:31:19;;;;;;;35.03;24.53;;;;;;;2.14;70.61;100025.80;1677080;84;21364;-82
2021/04/05 00:33:46;;;;;;;36.97;26.27;;;;;;;2.05;70.82;100024.52;1679551;80;21156;-81
2021/04/05 00:36:13;;;;;;;;;;;;;;;1.96;70.97;100019.63;1667106;84;21351;-79
2021/04/05 00:38:43;;;;;;;34.77;24.27;;;;;;;1.91;71.19;100021.84;1652744;84;20224;-81
2021/04/05 00:41:15;;;;;;;38.67;26.97;;;;;;;1.82;71.42;100017.42;1664596;84;21224;-80
2021/04/05 00:43:51;;;;;;;43.07;27.47;;;;;;;1.81;71.39;100019.69;1668841;84;21846;-84
2021/04/05 00:46:23;;;;;;;35.93;26.93;;;;;;;1.76;71.51;100018.81;1678459;83;21101;-80
2021/04/05 00:48:52;;;;;;;39.73;26.47;;;;;;;1.83;71.45;100015.98;1697731;82;22302;-82
2021/04/05 00:51:23;;;;;;;33.90;27.07;;;;;;;1.92;71.24;100018.23;1717201;82;21338;-81
2021/04/05 00:53:56;;;;;;;37.60;27.30;;;;;;;1.91;71.28;100021.35;1698592;83;21227;-82
2021/04/05 00:56:25;;;;;;;36.43;26.00;;;;;;;1.85;71.37;100021.10;1714720;83;21121;-80
2021/04/05 00:58:59;;;;;;;35.70;27.85;;;;;;;1.79;71.46;100017.23;1698071;83;21777;-81
2021/04/05 01:01:27;;;;;;;46.37;29.10;;;;;;;1.73;71.51;100022.55;1685328;82;21136;-83
2021/04/05 01:03:55;;;;;;;37.60;26.50;;;;;;;1.70;71.65;100020.20;1696896;82;21218;-81
2021/04/05 01:06:32;;;;;;;38.93;28.10;;;;;;;1.73;71.67;100013.36;1684249;83;21230;-81
2021/04/05 01:09:04;;;;;;;41.63;29.10;;;;;;;1.86;71.51;100018.80;1663116;84;21779;-82
2021/04/05 01:11:32;;;;;;;45.07;29.93;;;;;;;1.91;71.35;100012.16;1718207;80;21140;-82
2021/04/05 01:13:59;;;;;;;39.17;29.30;;;;;;;1.87;71.35;100009.47;1737786;81;21182;-82
2021/04/05 01:16:30;;;;;;;43.43;30.17;;;;;;;1.82;71.43;100010.85;1743145;80;21190;-82
2021/04/05 01:19:02;;;;;;;40.33;30.30;;;;;;;1.73;71.50;100005.94;1712805;80;21366;-80
2021/04/05 01:21:29;;;;;;;41.10;29.33;;;;;;;1.65;71.61;100009.27;1744828;80;21179;-82
2021/04/05 01:23:57;;;;;;;41.47;28.37;;;;;;;1.63;71.54;100007.75;1682208;81;21802;-82
2021/04/05 01:26:24;;;;;;;39.20;28.20;;;;;;;1.68;71.31;100011.62;1688885;81;21253;-81
2021/04/05 01:28:52;;;;;;;40.97;31.43;;;;;;;1.62;71.41;99999.52;1741205;81;21702;-82
2021/04/05 01:31:23;;;;;;;44.93;31.60;;;;;;;1.58;71.77;100012.09;1696989;82;21209;-81
2021/04/05 01:33:51;;;;;;;;;;;;;;;1.54;71.91;100005.00;1717494;81;21176;-81
2021/04/05 01:36:18;;;;;;;45.67;33.00;;;;;;;1.52;72.07;100007.40;1718176;82;20212;-80
2021/04/05 01:38:52;;;;;;;44.63;31.60;;;;;;;1.46;72.34;100004.02;1695033;82;21167;-82
2021/04/05 01:41:32;;;;;;;41.17;31.60;;;;;;;1.50;72.30;100003.59;1697233;82;21283;-80
2021/04/05 01:44:01;;;;;;;53.03;33.20;;;;;;;1.64;72.17;99995.80;1706615;82;21993;-81
2021/04/05 01:46:30;;;;;;;44.03;29.80;;;;;;;1.71;72.00;99989.48;1702858;83;21200;-81
2021/04/05 01:49:01;;;;;;;46.93;33.07;;;;;;;1.70;72.08;99988.66;1696379;83;21352;-81
2021/04/05 01:51:31;;;;;;;43.07;33.17;;;;;;;1.70;72.14;99990.47;1708885;82;21722;-82
2021/04/05 01:53:58;;;;;;;47.10;34.47;;;;;;;1.71;72.07;99990.80;1718308;82;21196;-83
2021/04/05 01:56:25;;;;;;;50.60;34.57;;;;;;;1.69;72.01;99978.29;1715778;82;21366;-81
2021/04/05 01:58:54;;;;;;;51.50;37.87;;;;;;;1.70;71.88;99986.04;1723671;82;21150;-81
2021/04/05 02:01:27;;;;;;;47.23;34.27;;;;;;;1.79;71.64;99983.53;1709812;82;21101;-81
2021/04/05 02:03:56;;;;;;;60.57;39.93;;;;;;;1.82;71.51;99980.14;1714245;82;22200;-80
2021/04/05 02:06:32;;;;;;;57.47;39.60;;;;;;;1.77;71.65;99979.72;1716696;81;21173;-81
2021/04/05 02:09:00;;;;;;;60.10;42.73;;;;;;;1.74;71.77;99976.90;1737871;82;21183;-81
2021/04/05 02:11:36;;;;;;;64.00;43.13;;;;;;;1.73;71.75;99980.52;1736753;81;21078;-83
2021/04/05 02:14:07;;;;;;;62.30;42.33;;;;;;;1.71;71.78;99974.57;1731728;81;21130;-84
2021/04/05 02:16:34;;;;;;;66.70;43.27;;;;;;;1.74;71.77;99978.21;1733537;81;21624;-83
2021/04/05 02:19:05;;;;;;;60.33;41.33;;;;;;;1.85;71.48;99979.05;1713323;82;21213;-83
2021/04/05 02:21:32;;;;;;;59.03;42.60;;;;;;;1.90;71.39;99979.43;1725950;81;21281;-82
2021/04/05 02:24:05;;;;;;;67.53;43.60;;;;;;;1.84;71.34;99977.38;1711511;82;21243;-83
2021/04/05 02:26:36;;;;;;;60.97;42.73;;;;;;;1.77;71.44;99978.91;1702255;83;21206;-82
2021/04/05 02:29:06;;;;;;;61.67;45.40;;;;;;;1.70;71.52;99975.53;1689145;83;21447;-83
2021/04/05 02:31:36;;;;;;;60.57;43.80;;;;;;;1.66;71.64;99978.59;1728137;81;21818;-83
2021/04/05 02:34:11;;;;;;;64.03;43.43;;;;;;;1.68;71.72;99981.41;1678732;83;21149;-82
2021/04/05 02:36:41;;;;;;;67.97;47.17;;;;;;;1.81;71.48;99981.59;1690847;82;21202;-82
2021/04/05 02:39:11;;;;;;;61.07;43.67;;;;;;;1.82;71.27;99971.43;1725434;82;21168;-82
2021/04/05 02:41:44;;;;;;;64.47;45.77;;;;;;;1.75;71.35;99970.69;1696389;82;21206;-81
2021/04/05 02:44:12;;;;;;;71.17;47.97;;;;;;;1.68;71.39;99970.90;1696491;83;21637;-81
2021/04/05 02:46:41;;;;;;;68.40;47.97;;;;;;;1.62;71.49;99967.52;1706861;83;22644;-81
2021/04/05 02:49:14;;;;;;;76.90;48.10;;;;;;;1.12;71.62;99890.20;1674518;83;21229;-78
2021/04/05 02:51:49;;;;;;;69.33;45.60;;;;;;;1.64;71.52;99972.16;1711224;82;21450;-81
2021/04/05 02:54:25;;;;;;;69.37;48.77;;;;;;;1.73;71.29;99973.09;1733601;82;21297;-79
2021/04/05 02:56:53;;;;;;;68.77;46.47;;;;;;;1.69;71.12;99968.59;1711317;81;21142;-81
2021/04/05 02:59:22;;;;;;;84.70;52.27;;;;;;;1.38;71.44;99931.67;1727735;81;21235;-80
2021/04/05 03:01:50;;;;;;;76.13;52.03;;;;;;;1.52;71.63;99966.69;1727917;81;21143;-81
2021/04/05 03:04:18;;;;;;;75.30;50.70;;;;;;;1.47;71.82;99966.27;1734280;81;21140;-84
2021/04/05 03:06:49;;;;;;;74.47;50.07;;;;;;;1.42;71.93;99958.81;1726427;81;21224;-83
2021/04/05 03:09:16;;;;;;;68.03;44.73;;;;;;;1.43;71.98;99960.95;1724113;81;21598;-82
2021/04/05 03:11:44;;;;;;;81.63;49.73;;;;;;;1.39;72.01;99961.70;1699744;82;21113;-81
2021/04/05 03:14:12;;;;;;;67.43;46.17;;;;;;;1.39;72.04;99954.31;1731858;81;21165;-81
2021/04/05 03:16:43;;;;;;;64.27;45.13;;;;;;;1.50;72.00;99955.49;1720648;80;21682;-82
2021/04/05 03:19:13;;;;;;;69.57;47.60;;;;;;;1.54;71.91;99956.87;1732974;81;21216;-85
2021/04/05 03:21:44;;;;;;;76.63;49.37;;;;;;;1.47;72.01;99950.50;1717611;81;22195;-83
2021/04/05 03:24:13;;;;;;;69.57;48.10;;;;;;;1.43;72.14;99949.98;1712736;81;21279;-82
2021/04/05 03:26:40;;;;;;;75.20;48.40;;;;;;;1.42;72.22;99956.68;1699501;82;21217;-82
2021/04/05 03:29:11;;;;;;;69.20;45.97;;;;;;;1.40;72.29;99953.36;1694635;83;21185;-82
2021/04/05 03:31:41;;;;;;;73.73;48.23;;;;;;;1.41;72.24;99951.06;1687659;83;21392;-83
2021/04/05 03:34:23;;;;;;;71.03;46.10;;;;;;;1.39;72.41;99951.69;1704142;82;21140;-85
2021/04/05 03:36:54;;;;;;;70.90;45.67;;;;;;;1.42;72.39;99951.42;1721068;81;21211;-83
2021/04/05 03:39:23;;;;;;;67.37;46.57;;;;;;;1.55;72.14;99948.85;1723931;81;21719;-82
2021/04/05 03:42:15;;;;;;;72.10;46.20;;;;;;;1.61;72.20;99952.72;1735611;81;21734;-83
2021/04/05 03:45:07;;;;;;;72.37;47.30;;;;;;;1.62;72.46;99946.97;1719661;81;21162;-83
2021/04/05 03:47:52;;;;;;;77.07;48.63;;;;;;;1.64;72.52;99943.25;1713718;81;21168;-84
2021/04/05 03:50:43;;;;;;;73.77;50.40;;;;;;;1.70;72.61;99941.37;1698659;80;21188;-84
2021/04/05 03:53:40;;;;;;;67.83;47.93;;;;;;;1.81;72.60;99943.48;1700586;82;21312;-83
2021/04/05 03:56:15;;;;;;;61.30;41.33;;;;;;;1.91;72.34;99938.55;1693611;83;21138;-83
2021/04/05 03:58:49;;;;;;;58.43;41.10;;;;;;;2.08;71.82;99943.56;1687662;82;21225;-83
2021/04/05 04:01:22;;;;;;;74.17;46.03;;;;;;;2.18;71.18;99943.52;1698448;82;21137;-83
2021/04/05 04:04:01;;;;;;;63.13;45.20;;;;;;;2.17;71.28;99950.23;1724642;82;21278;-83
2021/04/05 04:09:27;;;;;;;65.33;44.07;;;;;;;2.17;71.59;99936.62;1805057;78;22419;-83
2021/04/05 04:11:59;;;;;;;61.93;44.70;;;;;;;2.13;71.58;99938.70;1733105;80;21672;-83
2021/04/05 04:14:27;;;;;;;64.87;43.67;;;;;;;2.13;71.55;99933.45;1687721;84;21208;-83
2021/04/05 04:16:58;;;;;;;63.20;43.27;;;;;;;2.15;71.61;99938.57;1686600;84;21216;-82
2021/04/05 04:19:28;;;;;;;60.93;43.03;;;;;;;2.18;71.49;99938.77;1679382;84;21196;-82
2021/04/05 04:21:56;;;;;;;63.70;44.00;;;;;;;2.26;71.19;99935.77;1692576;83;21176;-81
2021/04/05 04:24:24;;;;;;;;;;;;;;;2.36;70.88;99930.45;1700165;84;21168;-83
2021/04/05 04:26:51;;;;;;;57.53;39.97;;;;;;;2.38;71.05;99933.77;1690096;84;20219;-82
2021/04/05 04:29:21;;;;;;;60.73;42.83;;;;;;;2.33;71.37;99928.11;1682266;84;21105;-82
2021/04/05 04:31:49;;;;;;;63.60;45.10;;;;;;;2.36;71.53;99927.01;1666277;84;21122;-82
2021/04/05 04:34:18;;;;;;;70.80;46.53;;;;;;;2.41;71.53;99926.06;1682788;84;21116;-79
2021/04/05 04:36:46;;;;;;;64.53;45.13;;;;;;;2.48;71.62;99919.25;1688518;84;22137;-83
2021/04/05 04:39:16;;;;;;;68.93;46.60;;;;;;;2.61;71.57;99918.91;1656955;84;21780;-83
2021/04/05 04:41:47;;;;;;;70.87;46.10;;;;;;;2.76;71.32;99913.98;1651409;84;21327;-83
2021/04/05 04:44:15;;;;;;;62.70;45.30;;;;;;;2.97;70.89;99915.02;1646537;85;21377;-83
2021/04/05 04:46:42;;;;;;;49.50;34.37;;;;;;;3.24;70.15;99908.83;1654938;85;21343;-86
2021/04/05 04:49:11;;;;;;;54.37;39.07;;;;;;;3.38;69.43;99904.86;1646366;85;21222;-84
2021/04/05 04:51:40;;;;;;;51.67;34.20;;;;;;;3.60;69.66;99908.32;1660535;85;21639;-84
2021/04/05 04:54:11;;;;;;;38.37;26.60;;;;;;;4.24;67.84;99901.45;1659462;85;21292;-84
2021/04/05 04:56:40;;;;;;;28.07;22.37;;;;;;;5.01;64.21;99897.37;1653094;82;21581;-84
2021/04/05 04:59:11;;;;;;;29.87;21.90;;;;;;;5.62;61.47;99893.94;1671758;84;21154;-84
2021/04/05 05:01:44;;;;;;;26.77;22.43;;;;;;;5.95;60.36;99897.83;1674181;85;21073;-84
2021/04/05 05:04:19;;;;;;;26.17;22.07;;;;;;;6.09;58.82;99891.88;1666493;85;21250;-85
2021/04/05 05:06:48;;;;;;;27.23;23.33;;;;;;;6.08;57.95;99892.86;1661186;84;21193;-85
2021/04/05 05:09:19;;;;;;;33.43;24.50;;;;;;;5.99;57.51;99892.08;1654928;84;21157;-83
2021/04/05 05:11:46;;;;;;;30.10;23.27;;;;;;;5.88;57.32;99888.44;1654993;85;21148;-86
2021/04/05 05:14:15;;;;;;;29.70;22.13;;;;;;;5.80;57.59;99884.47;1648805;85;21630;-84
2021/04/05 05:16:46;;;;;;;22.40;18.53;;;;;;;5.80;57.10;99884.47;1662957;84;21319;-82
2021/04/05 05:19:15;;;;;;;22.40;18.57;;;;;;;5.81;56.51;99880.84;1673978;84;21726;-92
2021/04/05 05:22:00;;;;;;;19.80;16.70;;;;;;;5.83;56.18;99882.31;1683465;85;21174;-85
2021/04/05 05:24:31;;;;;;;16.67;13.93;;;;;;;6.13;56.06;99879.14;1630561;86;21364;-84
2021/04/05 05:27:00;;;;;;;18.33;14.77;;;;;;;6.46;54.77;99881.16;1650394;85;21222;-83
2021/04/05 05:29:28;;;;;;;17.50;14.63;;;;;;;6.50;53.60;99885.11;1657454;85;21252;-79
2021/04/05 05:31:57;;;;;;;18.57;15.47;;;;;;;6.63;53.81;99882.73;1651008;85;21721;-75
2021/04/05 05:34:26;;;;;;;19.10;17.10;;;;;;;7.12;53.59;99870.99;1649432;85;21227;-80
2021/04/05 05:36:55;;;;;;;18.17;14.73;;;;;;;7.77;50.75;99866.92;1637952;85;21220;-76
2021/04/05 05:39:22;;;;;;;18.27;15.27;;;;;;;8.19;49.61;99869.47;1632126;85;21218;-77
2021/04/05 05:42:14;;;;;;;16.77;15.17;;;;;;;8.40;49.35;99866.56;1629765;85;21233;-80
2021/04/05 05:44:53;;;;;;;19.23;16.83;;;;;;;8.73;48.68;99865.63;1659412;82;21267;-82
2021/04/05 05:47:54;;;;;;;21.97;18.47;;;;;;;9.21;48.13;99867.76;1641558;87;21690;-85
2021/04/05 05:50:47;;;;;;;18.43;16.47;;;;;;;9.77;46.81;99860.81;1671177;85;21224;-83
2021/04/05 05:53:57;;;;;;;22.93;18.77;;;;;;;10.21;45.02;99857.80;1655322;85;21219;-82
2021/04/05 05:56:44;;;;;;;19.57;17.50;;;;;;;10.24;44.88;99849.39;1688099;83;21138;-87
2021/04/05 05:59:49;;;;;;;16.07;14.38;;;;;;;10.30;43.54;99843.78;1698915;83;21162;-88
2021/04/05 06:02:55;;;;;;;14.87;13.37;;;;;;;10.56;42.83;99837.77;1668218;84;21198;-88
2021/04/05 06:06:19;;;;;;;14.30;12.90;;;;;;;11.16;42.20;99831.20;1699192;82;21086;-92
2021/04/05 06:09:26;;;;;;;18.13;12.63;;;;;;;11.93;40.49;99833.44;1693569;84;21195;-89
2021/04/05 06:12:20;;;;;;;13.30;11.53;;;;;;;12.58;38.93;99823.52;1689286;82;21756;-80
2021/04/05 06:15:03;;;;;;;11.57;10.37;;;;;;;13.04;37.39;99819.71;1677835;85;21373;-79
2021/04/05 06:17:59;;;;;;;13.10;10.60;;;;;;;13.02;36.69;99821.79;1729439;82;21532;-86
2021/04/05 06:20:48;;;;;;;11.77;10.03;;;;;;;13.12;36.40;99821.30;1715191;82;21769;-80
2021/04/05 06:23:38;;;;;;;12.50;11.20;;;;;;;13.34;36.05;99811.08;1710628;82;21621;-87
2021/04/05 06:26:47;;;;;;;13.37;11.73;;;;;;;13.46;35.49;99812.51;1691188;84;21710;-83
2021/04/05 06:29:44;;;;;;;13.37;12.03;;;;;;;13.56;34.53;99813.34;1716464;81;21291;-87
2021/04/05 06:32:57;;;;;;;13.27;11.97;;;;;;;13.23;35.09;99802.39;1805284;77;23011;-88
2021/04/05 06:35:54;;;;;;;10.03;7.53;;;;;;;12.93;35.53;99807.03;1684560;79;21274;-86
2021/04/05 06:38:26;;;;;;;8.80;7.53;;;;;;;12.76;34.38;99808.08;1682776;83;21201;-78
2021/04/05 06:40:56;;;;;;;9.15;8.20;;;;;;;12.58;34.98;99808.81;1655194;85;21337;-84
2021/04/05 06:44:09;;;;;;;10.70;6.58;;;;;;;12.62;34.18;99807.34;1645658;86;21335;-77
2021/04/05 06:46:42;;;;;;;7.20;6.17;;;;;;;12.55;34.00;99813.24;1627909;86;21242;-79
2021/04/05 06:49:46;;;;;;;8.30;5.17;;;;;;;12.23;34.99;99811.84;1645853;85;21246;-75
2021/04/05 06:52:31;;;;;;;8.03;5.77;;;;;;;12.30;35.06;99816.33;1638292;86;21234;-77
2021/04/05 06:55:27;;;;;;;14.50;8.40;;;;;;;12.48;34.72;99811.64;1656080;85;21210;-78
2021/04/05 06:58:12;;;;;;;8.60;7.67;;;;;;;12.49;35.18;99804.75;1654835;85;21622;-83
2021/04/05 07:01:11;;;;;;;8.43;7.37;;;;;;;11.86;36.00;99804.84;1662397;84;21575;-87
2021/04/05 07:04:22;;;;;;;9.37;8.33;;;;;;;10.96;38.24;99812.52;1679846;83;21175;-81
2021/04/05 07:07:11;;;;;;;;;;;;;;;10.46;39.30;99809.36;1651968;85;21203;-85
2021/04/05 07:09:55;;;;;;;11.83;9.00;;;;;;;10.05;40.50;99808.85;1627226;86;20224;-85
2021/04/05 07:12:54;;;;;;;13.17;9.67;;;;;;;9.74;40.97;99810.13;1633796;84;21144;-88
2021/04/05 07:16:03;;;;;;;9.90;8.90;;;;;;;9.64;41.92;99810.98;1627944;87;22541;-88
2021/04/05 07:20:07;;;;;;;11.23;9.27;;;;;;;9.55;41.84;99805.81;1563720;90;21800;-89
2021/04/05 07:23:15;;;;;;;8.37;7.50;;;;;;;9.39;42.60;99809.28;1573044;87;21603;-91
2021/04/05 07:25:52;;;;;;;;;;;;;;;9.25;42.23;99801.20;1607783;87;21226;-88
2021/04/05 07:28:43;;;;;;;9.93;7.73;;;;;;;9.20;42.33;99796.95;1609494;87;20187;-87
2021/04/05 07:31:56;;;;;;;8.57;7.70;;;;;;;9.08;42.00;99782.05;1796933;79;23055;-85
2021/04/05 07:35:02;;;;;;;11.37;7.37;;;;;;;8.91;41.68;99784.63;1788986;77;21100;-85
2021/04/05 07:38:13;;;;;;;10.35;8.30;;;;;;;8.91;41.69;99784.15;1755073;81;21142;-89
2021/04/05 07:41:28;;;;;;;10.53;8.65;;;;;;;8.88;41.34;99779.20;1754168;81;21214;-89
2021/04/05 07:44:12;;;;;;;9.70;8.80;;;;;;;8.92;41.57;99779.13;1752120;80;21132;-85
2021/04/05 07:46:47;;;;;;;14.23;8.97;;;;;;;9.03;41.92;99773.00;1753983;81;21168;-87
2021/04/05 07:49:26;;;;;;;13.87;10.37;;;;;;;8.99;41.42;99738.52;1758636;81;22743;-86
2021/04/05 07:52:06;;;;;;;12.93;10.30;;;;;;;9.20;41.50;99771.70;1758713;81;22419;-88
2021/04/05 07:54:38;;;;;;;10.80;9.63;;;;;;;9.15;41.01;99771.45;1758582;81;21176;-89
2021/04/05 07:57:25;;;;;;;10.83;8.60;;;;;;;9.03;41.04;99765.02;1721576;80;21120;-88
2021/04/05 08:00:08;;;;;;;13.23;8.53;;;;;;;8.99;41.38;99759.27;1715104;81;21199;-89
2021/04/05 08:03:09;;;;;;;11.93;8.73;;;;;;;9.05;40.33;99755.83;1708970;81;21190;-80
2021/04/05 08:05:51;;;;;;;11.07;9.87;;;;;;;9.12;40.64;99748.73;1691177;83;21131;-89
2021/04/05 08:08:30;;;;;;;12.47;9.77;;;;;;;9.23;41.07;99737.23;1713033;81;21199;-85
2021/04/05 08:11:25;;;;;;;12.90;10.47;;;;;;;9.32;40.84;99737.41;1723882;81;21190;-86
2021/04/05 08:14:21;;;;;;;15.30;11.53;;;;;;;9.44;40.71;99738.52;1717823;81;21208;-90
2021/04/05 08:17:32;;;;;;;15.53;10.30;;;;;;;9.43;40.77;99730.73;1720795;82;21128;-90
2021/04/05 08:20:26;;;;;;;10.60;9.53;;;;;;;9.48;40.96;99722.47;1749435;81;21242;-84
2021/04/05 08:23:45;;;;;;;13.60;10.27;;;;;;;9.52;40.84;99719.73;1718056;81;21158;-87
2021/04/05 08:26:42;;;;;;;13.08;8.58;;;;;;;9.56;40.84;99716.16;1770365;80;21698;-91
2021/04/05 08:29:44;;;;;;;9.07;7.73;;;;;;;9.61;39.39;99711.09;1768886;80;21207;-91
2021/04/05 08:32:39;;;;;;;13.63;8.53;;;;;;;9.58;39.41;99706.15;1742275;80;21278;-90
2021/04/05 08:35:42;;;;;;;11.83;8.87;;;;;;;9.55;39.31;99702.05;1706286;81;21215;-86
2021/04/05 08:38:27;;;;;;;7.73;6.00;;;;;;;9.51;38.89;99704.80;1704559;83;21175;-85
2021/04/05 08:41:05;;;;;;;7.10;5.03;;;;;;;9.46;37.54;99696.58;1705997;83;21290;-87
2021/04/05 08:44:26;;;;;;;6.80;5.47;;;;;;;9.46;37.75;99694.44;1713835;80;21125;-87
2021/04/05 08:46:59;;;;;;;7.43;5.57;;;;;;;9.38;37.91;99690.59;1702990;83;21189;-89
2021/04/05 08:49:29;;;;;;;6.07;5.43;;;;;;;9.34;38.06;99684.34;1704458;84;21212;-86
2021/04/05 08:52:03;;;;;;;6.60;5.43;;;;;;;9.44;38.05;99677.85;1696809;83;21195;-86
2021/04/05 08:54:36;;;;;;;5.87;3.83;;;;;;;9.59;37.40;99675.03;1702976;82;21216;-85
2021/04/05 08:57:08;;;;;;;3.70;2.47;;;;;;;9.75;36.42;99668.86;1655868;84;21105;-84
2021/04/05 09:00:09;;;;;;;3.03;2.73;;;;;;;9.81;35.15;99665.91;1655420;85;21204;-85
2021/04/05 09:02:53;;;;;;;4.40;3.93;;;;;;;9.82;35.36;99662.76;1670406;85;21203;-84
2021/04/05 09:05:27;;;;;;;9.07;5.00;;;;;;;9.92;35.55;99658.67;1685805;83;21204;-86
2021/04/05 09:08:06;;;;;;;7.20;4.33;;;;;;;10.00;35.26;99655.52;1681070;84;21143;-86
2021/04/05 09:11:02;;;;;;;4.17;3.43;;;;;;;10.05;34.57;99643.77;1708846;83;21733;-87
2021/04/05 09:13:54;;;;;;;5.67;3.63;;;;;;;10.08;34.14;99640.71;1683535;84;21172;-89
2021/04/05 09:16:53;;;;;;;3.90;3.20;;;;;;;10.10;34.60;99636.00;1678027;83;21191;-86
2021/04/05 09:20:04;;;;;;;4.80;2.73;;;;;;;10.16;34.08;99628.52;1816243;77;23568;-90
2021/04/05 09:23:18;;;;;;;2.37;2.17;;;;;;;10.07;34.34;99623.08;1796019;78;21034;-93
2021/04/05 09:26:11;;;;;;;3.53;2.00;;;;;;;10.08;34.17;99628.20;1717071;83;21229;-94
2021/04/05 09:28:47;;;;;;;1.43;1.00;;;;;;;10.10;34.39;99617.36;1709753;82;21349;-91
2021/04/05 09:31:34;;;;;;;1.73;1.00;;;;;;;10.08;33.80;99620.22;1718669;82;21709;-85
2021/04/05 09:34:30;;;;;;;1.57;1.03;;;;;;;10.04;33.67;99616.81;1711504;81;21120;-91
2021/04/05 09:37:39;;;;;;;2.52;1.60;;;;;;;10.01;33.81;99613.25;1697344;82;21808;-90
2021/04/05 09:40:17;;;;;;;0.85;0.85;;;;;;;9.99;33.90;99611.30;1696730;82;21199;-89
2021/04/05 09:43:09;;;;;;;1.67;1.30;;;;;;;9.89;33.95;99607.70;1704161;82;21173;-88
2021/04/05 09:45:43;;;;;;;2.70;1.00;;;;;;;9.73;33.60;99599.56;1710396;82;21257;-87
2021/04/05 09:48:42;;;;;;;1.53;1.43;;;;;;;9.46;34.56;99606.13;1680583;82;21163;-85
2021/04/05 09:51:43;;;;;;;1.50;1.03;;;;;;;9.35;35.16;99596.87;1684358;83;21162;-84
2021/04/05 09:55:17;;;;;;;2.30;0.73;;;;;;;9.39;34.73;99589.32;1758704;79;22641;-83
2021/04/05 09:57:56;;;;;;;4.13;1.70;;;;;;;9.29;34.70;99601.66;1700913;82;21190;-86
2021/04/05 10:00:26;;;;;;;1.23;0.80;;;;;;;9.22;35.14;99595.48;1722243;80;21810;-86
2021/04/05 10:02:59;;;;;;;1.33;0.80;;;;;;;9.15;35.25;99596.80;1690305;83;21758;-87
2021/04/05 10:05:27;;;;;;;2.77;1.20;;;;;;;9.16;35.77;99599.76;1688006;83;22475;-84
2021/04/05 10:07:56;;;;;;;2.67;1.40;;;;;;;9.17;36.03;99603.23;1694422;83;21503;-84
2021/04/05 10:10:25;;;;;;;1.53;1.30;;;;;;;9.06;35.70;99594.48;1664902;84;21442;-85
2021/04/05 10:12:58;;;;;;;1.53;1.43;;;;;;;9.00;36.00;99591.29;1636117;86;21401;-86
2021/04/05 10:15:27;;;;;;;2.07;1.23;;;;;;;8.99;35.63;99589.66;1584024;89;21189;-85
2021/04/05 10:18:01;;;;;;;2.10;1.50;;;;;;;9.03;35.74;99581.08;1600100;88;21889;-84
2021/04/05 10:20:31;;;;;;;2.17;1.50;;;;;;;9.06;35.57;99574.06;1590585;88;21246;-81
2021/04/05 10:23:05;;;;;;;1.33;1.13;;;;;;;9.13;35.76;99568.75;1596931;88;21131;-85
2021/04/05 10:25:34;;;;;;;2.37;1.47;;;;;;;9.22;36.06;99564.91;1620155;87;21214;-86
2021/04/05 10:28:06;;;;;;;1.50;1.40;;;;;;;9.30;35.61;99557.27;1614346;88;21174;-86
2021/04/05 10:30:39;;;;;;;1.43;1.10;;;;;;;9.30;35.82;99556.75;1617143;87;21244;-86
2021/04/05 10:33:17;;;;;;;1.30;0.60;;;;;;;9.33;35.65;99557.69;1615893;85;21384;-86
2021/04/05 10:35:51;;;;;;;2.50;0.60;;;;;;;9.36;34.64;99552.47;1624741;87;21676;-85
2021/04/05 10:38:19;;;;;;;0.83;0.40;;;;;;;9.40;33.99;99545.76;1623575;87;21213;-87
2021/04/05 10:40:51;;;;;;;1.90;1.13;;;;;;;9.48;33.53;99549.56;1624726;87;21211;-85
2021/04/05 10:43:46;;;;;;;6.53;1.40;;;;;;;9.54;33.70;99540.77;1627515;87;21190;-85
2021/04/05 10:46:26;;;;;;;5.00;0.93;;;;;;;9.59;34.44;99543.33;1616863;87;21252;-85
2021/04/05 10:49:01;;;;;;;4.03;0.97;;;;;;;9.57;34.60;99539.56;1641169;85;21326;-86
2021/04/05 10:51:40;;;;;;;2.13;0.40;;;;;;;9.62;33.93;99545.08;1663779;84;21329;-85
2021/04/05 10:54:21;;;;;;;1.10;0.43;;;;;;;9.67;32.31;99537.84;1645238;85;21345;-86
2021/04/05 10:57:06;;;;;;;2.03;0.57;;;;;;;9.75;32.63;99536.30;1624444;87;21582;-85
2021/04/05 10:59:51;;;;;;;0.83;0.80;;;;;;;9.87;32.71;99521.39;1628043;84;21156;-86
2021/04/05 11:02:39;;;;;;;0.60;0.60;;;;;;;10.05;32.73;99517.30;1658555;85;21120;-85
2021/04/05 11:05:12;;;;;;;0.55;0.53;;;;;;;10.18;32.33;99515.14;1660701;86;21203;-86
2021/04/05 11:07:46;;;;;;;1.33;0.70;;;;;;;10.22;31.33;99507.05;1659573;85;21685;-86
2021/04/05 11:10:21;;;;;;;0.70;0.57;;;;;;;10.22;31.96;99509.19;1658381;85;21284;-84
2021/04/05 11:12:56;;;;;;;1.03;0.60;;;;;;;10.27;32.24;99497.94;1632310;85;21100;-86
2021/04/05 11:15:27;;;;;;;2.20;0.80;;;;;;;10.33;31.89;99496.61;1658878;85;21250;-85
2021/04/05 11:17:56;;;;;;;1.80;0.80;;;;;;;10.39;31.53;99495.48;1660149;85;21713;-86
2021/04/05 11:20:34;;;;;;;1.93;1.07;;;;;;;10.35;32.53;99496.41;1643345;85;21195;-85
2021/04/05 11:23:08;;;;;;;1.17;1.10;;;;;;;10.29;32.63;99487.89;1658481;84;21658;-85
2021/04/05 11:25:55;;;;;;;1.10;0.90;;;;;;;10.22;32.53;99490.55;1660244;86;21188;-85
2021/04/05 11:28:28;;;;;;;1.47;0.80;;;;;;;10.14;32.79;99484.92;1658865;84;21184;-86
2021/04/05 11:31:03;;;;;;;1.20;1.10;;;;;;;10.18;32.84;99487.19;1646270;86;21213;-87
2021/04/05 11:33:38;;;;;;;2.17;1.00;;;;;;;10.21;32.59;99492.92;1663842;84;21232;-87
2021/04/05 11:36:08;;;;;;;1.77;0.57;;;;;;;10.11;31.70;99477.86;1656634;86;21204;-86
2021/04/05 11:38:46;;;;;;;2.70;0.80;;;;;;;10.05;32.42;99480.83;1661986;84;21200;-86
2021/04/05 11:41:22;;;;;;;1.43;1.27;;;;;;;9.95;32.83;99471.12;1658095;86;21180;-84
2021/04/05 11:43:54;;;;;;;4.20;0.93;;;;;;;9.82;33.27;99473.27;1656860;86;21176;-87
2021/04/05 11:46:34;;;;;;;3.50;0.97;;;;;;;9.84;33.34;99469.07;1644717;84;21098;-86
2021/04/05 11:49:30;;;;;;;1.10;1.00;;;;;;;9.84;32.57;99466.41;1636970;84;21218;-85
2021/04/05 11:52:19;;;;;;;0.98;0.60;;;;;;;9.73;32.21;99455.34;1636517;86;21492;-85
2021/04/05 11:55:03;;;;;;;3.27;0.93;;;;;;;9.64;32.77;99449.09;1612451;86;21689;-85
2021/04/05 11:57:52;;;;;;;3.90;1.13;;;;;;;9.63;32.76;99443.48;1580964;88;21215;-87
2021/04/05 12:00:46;;;;;;;1.43;0.87;;;;;;;9.66;32.38;99441.72;1571280;89;21241;-86
2021/04/05 12:03:45;;;;;;;0.40;0.40;;;;;;;9.72;32.12;99436.42;1633535;86;21193;-84
2021/04/05 12:06:27;;;;;;;0.77;0.20;;;;;;;9.83;29.76;99428.34;1609101;87;21194;-83
2021/04/05 12:09:10;;;;;;;0.67;0.20;;;;;;;9.88;28.95;99423.72;1574222;89;21377;-83
2021/04/05 12:12:02;;;;;;;0.90;0.40;;;;;;;9.89;29.87;99424.84;1577984;88;21053;-83
2021/04/05 12:14:29;;;;;;;0.80;0.30;;;;;;;9.85;29.94;99428.11;1576370;88;21207;-83
2021/04/05 12:17:00;;;;;;;0.93;0.43;;;;;;;9.85;30.44;99412.98;1587206;88;21132;-83
2021/04/05 12:19:37;;;;;;;0.73;0.63;;;;;;;9.88;31.13;99409.88;1587813;88;21191;-84
2021/04/05 12:22:08;;;;;;;1.43;0.50;;;;;;;9.95;31.10;99399.24;1588545;88;21183;-84
2021/04/05 12:24:43;;;;;;;0.97;0.60;;;;;;;10.00;31.18;99405.27;1620025;87;21275;-85
2021/04/05 12:27:14;;;;;;;3.13;0.73;;;;;;;10.02;31.27;99399.22;1618861;86;21232;-86
2021/04/05 12:29:45;;;;;;;1.47;0.60;;;;;;;9.98;31.53;99406.80;1621534;87;21583;-86